createdAt,value
2019-03-15T00:01:44.517Z,3.45
2019-03-15T00:04:11.257Z,6.05
2019-03-15T00:06:37.856Z,6.45
2019-03-15T00:09:06.471Z,4.80
2019-03-15T00:11:32.719Z,8.73
2019-03-15T00:13:59.083Z,6.78
2019-03-15T00:16:25.286Z,3.72
2019-03-15T00:18:51.502Z,4.35
2019-03-15T00:21:17.747Z,5.60
2019-03-15T00:23:43.971Z,4.58
2019-03-15T00:26:10.538Z,6.55
2019-03-15T00:28:36.767Z,5.17
2019-03-15T00:31:03.008Z,6.25
2019-03-15T00:33:29.228Z,6.08
2019-03-15T00:35:55.813Z,5.57
2019-03-15T00:38:22.210Z,2.80
2019-03-15T00:40:48.436Z,5.33
2019-03-15T00:43:14.966Z,7.30
2019-03-15T00:45:41.211Z,6.33
2019-03-15T00:48:07.427Z,4.12
2019-03-15T00:50:33.662Z,3.47
2019-03-15T00:52:59.884Z,7.42
2019-03-15T00:55:26.128Z,5.45
2019-03-15T00:57:52.639Z,4.45
2019-03-15T01:00:19.098Z,5.30
2019-03-15T01:02:45.608Z,4.87
2019-03-15T01:05:12.375Z,5.17
2019-03-15T01:07:38.915Z,3.93
2019-03-15T01:10:07.556Z,7.72
2019-03-15T01:12:33.799Z,4.53
2019-03-15T01:15:00.023Z,6.93
2019-03-15T01:17:26.572Z,2.92
2019-03-15T01:19:52.892Z,5.65
2019-03-15T01:22:19.431Z,4.53
2019-03-15T01:24:45.744Z,5.73
2019-03-15T01:27:11.983Z,5.25
2019-03-15T01:29:38.192Z,3.03
2019-03-15T01:32:04.424Z,6.80
2019-03-15T01:34:30.646Z,3.73
2019-03-15T01:36:56.875Z,5.70
2019-03-15T01:39:23.086Z,5.53
2019-03-15T01:41:49.362Z,7.12
2019-03-15T01:44:15.579Z,3.60
2019-03-15T01:46:41.826Z,6.53
2019-03-15T01:49:08.510Z,5.65
2019-03-15T01:51:34.880Z,4.47
2019-03-15T01:54:01.122Z,4.85
2019-03-15T01:56:27.344Z,5.65
2019-03-15T01:58:54.545Z,3.42
2019-03-15T02:01:20.740Z,8.70
2019-03-15T02:03:46.970Z,9.95
2019-03-15T02:06:13.201Z,5.62
2019-03-15T02:08:39.424Z,7.10
2019-03-15T02:11:05.667Z,4.28
2019-03-15T02:13:31.893Z,5.15
2019-03-15T02:15:58.110Z,5.83
2019-03-15T02:18:24.342Z,4.87
2019-03-15T02:20:50.583Z,6.97
2019-03-15T02:23:16.828Z,4.15
2019-03-15T02:25:43.099Z,6.22
2019-03-15T02:28:09.335Z,5.62
2019-03-15T02:30:35.556Z,5.35
2019-03-15T02:33:01.822Z,4.45
2019-03-15T02:35:28.041Z,5.95
2019-03-15T02:37:54.575Z,8.85
2019-03-15T02:40:20.823Z,6.67
2019-03-15T02:42:47.063Z,4.40
2019-03-15T02:45:13.705Z,6.55
2019-03-15T02:47:39.900Z,3.70
2019-03-15T02:50:06.963Z,6.03
2019-03-15T02:52:33.175Z,8.05
2019-03-15T02:54:59.451Z,6.00
2019-03-15T02:57:25.636Z,5.28
2019-03-15T02:59:51.889Z,4.03
2019-03-15T03:02:18.099Z,3.65
2019-03-15T03:04:44.335Z,3.90
2019-03-15T03:07:10.854Z,4.08
2019-03-15T03:09:37.109Z,8.77
2019-03-15T03:12:03.324Z,9.53
2019-03-15T03:14:30.950Z,4.00
2019-03-15T03:16:57.290Z,4.05
2019-03-15T03:19:23.532Z,4.53
2019-03-15T03:21:49.744Z,5.72
2019-03-15T03:24:15.988Z,3.83
2019-03-15T03:26:42.209Z,4.67
2019-03-15T03:29:08.450Z,6.50
2019-03-15T03:31:34.655Z,3.33
2019-03-15T03:34:00.903Z,3.40
2019-03-15T03:36:27.449Z,4.10
2019-03-15T03:38:53.704Z,5.30
2019-03-15T03:41:19.929Z,6.37
2019-03-15T03:43:46.183Z,3.93
2019-03-15T03:46:12.419Z,9.20
2019-03-15T03:48:38.659Z,5.72
2019-03-15T03:51:05.226Z,3.05
2019-03-15T03:53:31.573Z,6.28
2019-03-15T03:55:58.426Z,7.77
2019-03-15T03:58:24.962Z,6.75
2019-03-15T04:00:51.190Z,4.73
2019-03-15T04:03:17.522Z,5.97
2019-03-15T04:05:43.954Z,6.57
2019-03-15T04:08:10.192Z,7.72
2019-03-15T04:10:36.414Z,8.25
2019-03-15T04:13:03.122Z,7.60
2019-03-15T04:15:29.667Z,6.43
2019-03-15T04:17:55.885Z,7.07
2019-03-15T04:20:22.114Z,6.42
2019-03-15T04:22:48.335Z,8.55
2019-03-15T04:25:14.574Z,3.70
2019-03-15T04:27:40.799Z,7.70
2019-03-15T04:30:12.382Z,11.50
2019-03-15T04:32:38.614Z,8.07
2019-03-15T04:35:05.335Z,9.25
2019-03-15T04:37:31.566Z,9.95
2019-03-15T04:39:57.783Z,13.15
2019-03-15T04:42:24.013Z,6.20
2019-03-15T04:44:50.264Z,12.23
2019-03-15T04:47:16.508Z,14.33
2019-03-15T04:49:42.710Z,10.77
2019-03-15T04:52:08.943Z,13.03
2019-03-15T04:54:35.158Z,10.77
2019-03-15T04:57:01.422Z,8.95
2019-03-15T04:59:27.635Z,14.60
2019-03-15T05:01:53.897Z,12.50
2019-03-15T05:04:20.118Z,10.82
2019-03-15T05:06:46.355Z,13.72
2019-03-15T05:09:12.590Z,14.33
2019-03-15T05:11:38.818Z,13.73
2019-03-15T05:14:05.055Z,11.33
2019-03-15T05:16:31.286Z,10.57
2019-03-15T05:18:57.519Z,10.45
2019-03-15T05:21:23.751Z,12.93
2019-03-15T05:23:49.970Z,11.47
2019-03-15T05:26:16.208Z,12.40
2019-03-15T05:28:42.429Z,12.57
2019-03-15T05:31:09.003Z,15.90
2019-03-15T05:33:35.222Z,11.30
2019-03-15T05:36:02.346Z,10.77
2019-03-15T05:38:28.573Z,14.30
2019-03-15T05:40:54.804Z,7.77
2019-03-15T05:43:21.051Z,18.17
2019-03-15T05:45:47.276Z,14.93
2019-03-15T05:48:13.487Z,10.37
2019-03-15T05:50:40.892Z,14.00
2019-03-15T05:53:07.282Z,11.60
2019-03-15T05:55:33.518Z,16.67
2019-03-15T05:57:59.747Z,12.75
2019-03-15T06:00:25.982Z,12.43
2019-03-15T06:02:52.221Z,11.20
2019-03-15T06:05:18.479Z,14.10
2019-03-15T06:07:44.702Z,11.77
2019-03-15T06:10:12.355Z,13.58
2019-03-15T06:12:38.690Z,19.45
2019-03-15T06:15:07.426Z,11.77
2019-03-15T06:17:33.659Z,13.65
2019-03-15T06:19:59.921Z,13.65
2019-03-15T06:22:26.469Z,19.65
2019-03-15T06:24:52.697Z,11.77
2019-03-15T06:27:18.915Z,18.30
2019-03-15T06:29:45.142Z,13.07
2019-03-15T06:32:11.370Z,12.80
2019-03-15T06:34:39.469Z,15.90
2019-03-15T06:37:05.631Z,12.93
2019-03-15T06:39:31.879Z,13.30
2019-03-15T06:41:58.456Z,8.45
2019-03-15T06:44:24.989Z,14.87
2019-03-15T06:46:51.191Z,11.00
2019-03-15T06:49:17.437Z,12.50
2019-03-15T06:51:43.659Z,10.77
2019-03-15T06:54:11.624Z,14.05
2019-03-15T06:56:37.922Z,15.37
2019-03-15T06:59:04.153Z,12.50
2019-03-15T07:01:30.379Z,14.77
2019-03-15T07:03:56.612Z,12.80
2019-03-15T07:06:22.835Z,12.23
2019-03-15T07:08:49.063Z,15.47
2019-03-15T07:11:15.282Z,16.00
2019-03-15T07:13:41.880Z,13.43
2019-03-15T07:16:08.110Z,8.35
2019-03-15T07:18:35.499Z,21.33
2019-03-15T07:21:01.971Z,18.27
2019-03-15T07:23:28.245Z,11.07
2019-03-15T07:25:54.422Z,16.20
2019-03-15T07:28:20.674Z,12.03
2019-03-15T07:30:46.884Z,10.47
2019-03-15T07:33:13.106Z,17.03
2019-03-15T07:35:39.334Z,14.73
2019-03-15T07:38:05.604Z,11.80
2019-03-15T07:40:31.822Z,13.13
2019-03-15T07:43:02.003Z,12.70
2019-03-15T07:45:26.101Z,12.30
2019-03-15T07:47:52.341Z,12.13
2019-03-15T07:50:18.586Z,8.33
2019-03-15T07:52:44.795Z,18.20
2019-03-15T07:55:11.028Z,10.90
2019-03-15T07:57:37.230Z,16.33
2019-03-15T08:00:09.074Z,17.67
2019-03-15T08:02:35.263Z,16.87
2019-03-15T08:05:01.596Z,13.33
2019-03-15T08:07:36.142Z,11.77
2019-03-15T08:09:55.862Z,15.17
2019-03-15T08:12:22.078Z,14.17
2019-03-15T08:14:48.323Z,14.83
2019-03-15T08:17:14.544Z,13.07
2019-03-15T08:19:40.755Z,10.37
2019-03-15T08:22:06.999Z,18.57
2019-03-15T08:24:36.475Z,17.37
2019-03-15T08:27:01.274Z,13.93
2019-03-15T08:29:27.487Z,12.13
2019-03-15T08:31:53.702Z,14.40
2019-03-15T08:34:19.926Z,15.07
2019-03-15T08:36:46.462Z,11.20
2019-03-15T08:39:12.986Z,12.47
2019-03-15T08:41:39.211Z,17.00
2019-03-15T08:44:05.466Z,10.53
2019-03-15T08:46:31.683Z,19.47
2019-03-15T08:48:57.926Z,14.47
2019-03-15T08:51:24.145Z,18.23
2019-03-15T08:53:50.383Z,16.63
2019-03-15T08:56:16.607Z,12.03
2019-03-15T08:58:42.843Z,15.23
2019-03-15T09:01:10.972Z,15.50
2019-03-15T09:03:37.214Z,12.13
2019-03-15T09:06:03.431Z,18.87
2019-03-15T09:08:29.674Z,21.23
2019-03-15T09:10:55.887Z,16.50
2019-03-15T09:13:22.122Z,15.97
2019-03-15T09:15:48.329Z,10.93
2019-03-15T09:18:14.904Z,11.13
2019-03-15T09:20:41.124Z,16.13
2019-03-15T09:23:07.383Z,14.87
2019-03-15T09:25:33.701Z,16.20
2019-03-15T09:27:59.953Z,16.60
2019-03-15T09:30:26.164Z,17.60
2019-03-15T09:32:52.409Z,14.77
2019-03-15T09:35:18.631Z,16.13
2019-03-15T09:37:47.215Z,12.33
2019-03-15T09:40:16.092Z,15.00
2019-03-15T09:42:42.620Z,11.40
2019-03-15T09:45:16.288Z,13.40
2019-03-15T09:47:42.619Z,12.97
2019-03-15T09:50:21.499Z,12.83
2019-03-15T09:52:38.771Z,11.20
2019-03-15T09:55:07.591Z,9.70
2019-03-15T09:57:33.937Z,14.00
2019-03-15T10:00:00.397Z,12.60
2019-03-15T10:02:30.541Z,8.83
2019-03-15T10:04:54.723Z,13.27
2019-03-15T10:07:21.033Z,10.67
2019-03-15T10:09:47.403Z,9.17
2019-03-15T10:12:13.643Z,9.83
2019-03-15T10:14:39.870Z,11.40
2019-03-15T10:17:06.108Z,7.30
2019-03-15T10:19:32.341Z,5.83
2019-03-15T10:21:58.607Z,11.83
2019-03-15T10:24:24.815Z,9.03
2019-03-15T10:26:51.334Z,7.60
2019-03-15T10:29:19.631Z,9.77
2019-03-15T10:31:45.703Z,9.60
2019-03-15T10:34:11.915Z,9.70
2019-03-15T10:36:38.182Z,10.07
2019-03-15T10:39:05.512Z,13.00
2019-03-15T10:41:31.756Z,14.37
2019-03-15T10:43:57.987Z,9.67
2019-03-15T10:46:24.227Z,11.90
2019-03-15T10:48:50.442Z,11.53
2019-03-15T10:51:16.698Z,11.90
2019-03-15T10:53:42.899Z,14.13
2019-03-15T10:56:09.446Z,15.23
2019-03-15T10:58:35.674Z,11.00
2019-03-15T11:01:01.919Z,15.13
2019-03-15T11:03:28.133Z,10.70
2019-03-15T11:05:54.368Z,8.53
2019-03-15T11:08:24.085Z,9.30
2019-03-15T11:10:49.281Z,13.60
2019-03-15T11:13:15.507Z,11.17
2019-03-15T11:15:41.742Z,12.30
2019-03-15T11:18:07.960Z,8.50
2019-03-15T11:20:34.190Z,12.87
2019-03-15T11:23:00.418Z,14.57
2019-03-15T11:25:26.663Z,11.07
2019-03-15T11:27:52.880Z,11.70
2019-03-15T11:30:19.114Z,9.77
2019-03-15T11:32:45.334Z,10.37
2019-03-15T11:35:11.974Z,10.57
2019-03-15T11:37:38.399Z,10.43
2019-03-15T11:40:07.731Z,10.10
2019-03-15T11:42:33.955Z,8.50
2019-03-15T11:45:00.485Z,12.43
2019-03-15T11:47:26.809Z,12.47
2019-03-15T11:49:53.017Z,11.33
2019-03-15T11:52:19.246Z,9.20
2019-03-15T11:54:45.497Z,10.00
2019-03-15T11:57:12.030Z,10.90
2019-03-15T11:59:38.271Z,10.87
2019-03-15T12:02:04.691Z,7.57
2019-03-15T12:04:30.914Z,7.33
2019-03-15T12:06:57.131Z,7.03
2019-03-15T12:09:23.369Z,7.03
2019-03-15T12:11:49.592Z,8.10
2019-03-15T12:14:16.142Z,6.77
2019-03-15T12:16:42.351Z,6.47
2019-03-15T12:19:08.587Z,5.93
2019-03-15T12:21:35.141Z,6.43
2019-03-15T12:24:01.676Z,9.67
2019-03-15T12:26:39.747Z,6.57
2019-03-15T12:28:55.951Z,6.40
2019-03-15T12:31:22.190Z,7.17
2019-03-15T12:33:48.738Z,7.10
2019-03-15T12:36:14.975Z,5.97
2019-03-15T12:38:41.200Z,5.20
2019-03-15T12:41:07.445Z,6.50
2019-03-15T12:43:33.691Z,5.80
2019-03-15T12:45:59.919Z,5.63
2019-03-15T12:48:26.532Z,5.77
2019-03-15T12:50:52.762Z,5.13
2019-03-15T12:53:18.999Z,5.30
2019-03-15T12:55:45.621Z,4.80
2019-03-15T12:58:12.156Z,4.83
2019-03-15T13:00:38.368Z,5.23
2019-03-15T13:03:04.609Z,4.70
2019-03-15T13:05:30.949Z,5.40
2019-03-15T13:07:57.196Z,4.97
2019-03-15T13:10:23.818Z,5.33
2019-03-15T13:12:50.042Z,6.00
2019-03-15T13:15:16.490Z,6.23
2019-03-15T13:17:42.795Z,5.70
2019-03-15T13:20:13.351Z,5.47
2019-03-15T13:22:39.800Z,8.50
2019-03-15T13:25:08.455Z,5.10
2019-03-15T13:27:34.703Z,4.73
2019-03-15T13:30:00.915Z,4.77
2019-03-15T13:32:27.150Z,6.87
2019-03-15T13:34:53.355Z,4.63
2019-03-15T13:37:19.602Z,7.77
2019-03-15T13:39:45.817Z,5.07
2019-03-15T13:42:12.069Z,4.27
2019-03-15T13:44:38.299Z,3.60
2019-03-15T13:47:04.569Z,3.30
2019-03-15T13:49:30.771Z,4.53
2019-03-15T13:51:57.287Z,4.63
2019-03-15T13:54:23.523Z,8.37
2019-03-15T13:56:49.735Z,5.10
2019-03-15T13:59:15.986Z,5.37
2019-03-15T14:01:42.202Z,5.40
2019-03-15T14:04:08.472Z,3.83
2019-03-15T14:06:34.696Z,5.03
2019-03-15T14:09:00.923Z,5.73
2019-03-15T14:11:27.167Z,8.00
2019-03-15T14:13:53.393Z,5.40
2019-03-15T14:16:19.639Z,5.83
2019-03-15T14:18:45.855Z,4.70
2019-03-15T14:21:12.104Z,4.40
2019-03-15T14:23:38.662Z,5.07
2019-03-15T14:26:05.922Z,6.53
2019-03-15T14:28:32.558Z,4.23
2019-03-15T14:30:58.823Z,4.67
2019-03-15T14:33:25.055Z,5.50
2019-03-15T14:35:51.283Z,7.33
2019-03-15T14:38:17.499Z,12.03
2019-03-15T14:40:44.419Z,4.27
2019-03-15T14:43:11.135Z,6.67
2019-03-15T14:45:37.475Z,3.90
2019-03-15T14:48:04.021Z,4.43
2019-03-15T14:50:30.278Z,5.00
2019-03-15T14:52:56.491Z,5.73
2019-03-15T14:55:22.740Z,2.93
2019-03-15T14:57:53.511Z,12.03
2019-03-15T15:00:18.018Z,6.93
2019-03-15T15:02:44.241Z,6.87
2019-03-15T15:05:10.975Z,8.07
2019-03-15T15:07:37.290Z,7.17
2019-03-15T15:10:09.666Z,11.00
2019-03-15T15:12:35.873Z,10.70
2019-03-15T15:15:02.710Z,9.40
2019-03-15T15:17:28.931Z,8.50
2019-03-15T15:19:55.167Z,7.57
2019-03-15T15:22:21.387Z,5.87
2019-03-15T15:24:47.627Z,5.73
2019-03-15T15:27:13.846Z,6.00
2019-03-15T15:29:40.455Z,8.37
2019-03-15T15:32:06.683Z,5.83
2019-03-15T15:34:33.227Z,6.77
2019-03-15T15:36:59.452Z,6.00
2019-03-15T15:39:25.710Z,7.47
2019-03-15T15:41:51.930Z,6.97
2019-03-15T15:44:18.202Z,7.50
2019-03-15T15:46:44.418Z,5.03
2019-03-15T15:49:11.073Z,4.90
2019-03-15T15:51:37.258Z,6.13
2019-03-15T15:54:03.590Z,6.20
2019-03-15T15:56:29.798Z,5.53
2019-03-15T15:58:56.051Z,5.73
2019-03-15T16:01:22.663Z,8.40
2019-03-15T16:03:48.923Z,6.13
2019-03-15T16:06:15.139Z,7.07
2019-03-15T16:08:41.666Z,7.50
2019-03-15T16:11:08.040Z,10.40
2019-03-15T16:13:34.287Z,8.50
2019-03-15T16:16:00.488Z,7.87
2019-03-15T16:18:27.164Z,7.00
2019-03-15T16:20:53.435Z,7.60
2019-03-15T16:23:19.947Z,7.00
2019-03-15T16:25:46.195Z,6.73
2019-03-15T16:28:12.430Z,13.63
2019-03-15T16:30:38.673Z,8.20
2019-03-15T16:33:04.887Z,5.57
2019-03-15T16:35:31.117Z,10.87
2019-03-15T16:37:57.330Z,7.03
2019-03-15T16:40:23.571Z,9.23
2019-03-15T16:42:49.821Z,9.57
2019-03-15T16:45:21.645Z,8.60
2019-03-15T16:47:47.863Z,8.43
2019-03-15T16:50:14.097Z,10.40
2019-03-15T16:52:40.307Z,8.90
2019-03-15T16:55:10.624Z,6.20
2019-03-15T16:57:36.856Z,10.83
2019-03-15T17:00:11.727Z,8.73
2019-03-15T17:02:38.097Z,9.23
2019-03-15T17:05:06.305Z,11.00
2019-03-15T17:07:32.867Z,8.97
2019-03-15T17:09:59.231Z,7.37
2019-03-15T17:12:25.460Z,8.50
2019-03-15T17:14:51.667Z,10.27
2019-03-15T17:17:17.913Z,6.70
2019-03-15T17:19:44.254Z,7.00
2019-03-15T17:22:10.595Z,7.40
2019-03-15T17:24:37.178Z,11.80
2019-03-15T17:27:03.642Z,10.77
2019-03-15T17:29:29.911Z,7.20
2019-03-15T17:31:56.147Z,11.40
2019-03-15T17:34:22.373Z,7.70
2019-03-15T17:36:48.599Z,6.33
2019-03-15T17:39:14.821Z,9.93
2019-03-15T17:41:41.172Z,10.37
2019-03-15T17:44:07.420Z,14.90
2019-03-15T17:46:33.657Z,11.00
2019-03-15T17:48:59.874Z,10.93
2019-03-15T17:51:26.114Z,11.03
2019-03-15T17:53:52.330Z,10.17
2019-03-15T17:56:18.578Z,10.30
2019-03-15T17:58:44.879Z,9.30
2019-03-15T18:01:11.136Z,7.27
2019-03-15T18:03:37.655Z,12.07
2019-03-15T18:06:03.900Z,13.37
2019-03-15T18:08:30.111Z,9.57
2019-03-15T18:10:56.370Z,6.40
2019-03-15T18:13:22.874Z,10.40
2019-03-15T18:15:49.115Z,11.23
2019-03-15T18:18:15.335Z,12.00
2019-03-15T18:20:41.570Z,7.20
2019-03-15T18:23:09.690Z,11.63
2019-03-15T18:25:36.270Z,10.67
2019-03-15T18:28:02.805Z,11.07
2019-03-15T18:30:29.039Z,9.10
2019-03-15T18:32:55.663Z,14.53
2019-03-15T18:35:33.045Z,14.93
2019-03-15T18:37:50.116Z,16.67
2019-03-15T18:40:17.561Z,10.40
2019-03-15T18:42:44.176Z,11.70
2019-03-15T18:45:14.854Z,10.40
2019-03-15T18:47:41.343Z,10.73
2019-03-15T18:50:14.439Z,11.13
2019-03-15T18:52:40.668Z,7.07
2019-03-15T18:55:08.113Z,6.03
2019-03-15T18:57:34.355Z,10.37
2019-03-15T19:00:00.587Z,14.27
2019-03-15T19:02:26.800Z,12.67
2019-03-15T19:04:53.339Z,11.50
2019-03-15T19:07:19.570Z,7.40
2019-03-15T19:09:45.823Z,10.70
2019-03-15T19:12:12.038Z,10.03
2019-03-15T19:14:38.561Z,17.30
2019-03-15T19:17:04.803Z,11.30
2019-03-15T19:19:31.326Z,12.00
2019-03-15T19:21:57.562Z,11.23
2019-03-15T19:24:23.795Z,12.27
2019-03-15T19:26:50.039Z,15.00
2019-03-15T19:29:16.242Z,13.93
2019-03-15T19:31:42.481Z,13.97
2019-03-15T19:34:09.008Z,12.00
2019-03-15T19:36:35.248Z,9.43
2019-03-15T19:39:01.459Z,10.93
2019-03-15T19:41:27.695Z,13.50
2019-03-15T19:43:54.231Z,12.07
2019-03-15T19:46:20.477Z,10.70
2019-03-15T19:48:46.895Z,8.57
2019-03-15T19:51:13.427Z,10.10
2019-03-15T19:53:39.655Z,17.17
2019-03-15T19:56:05.882Z,9.93
2019-03-15T19:58:32.112Z,12.20
2019-03-15T20:00:58.355Z,14.80
2019-03-15T20:03:24.593Z,14.60
2019-03-15T20:05:50.811Z,7.33
2019-03-15T20:08:17.022Z,11.47
2019-03-15T20:10:43.267Z,14.43
2019-03-15T20:13:09.487Z,10.10
2019-03-15T20:15:36.032Z,10.53
2019-03-15T20:18:02.551Z,13.50
2019-03-15T20:20:29.094Z,11.97
2019-03-15T20:22:55.635Z,14.97
2019-03-15T20:25:21.869Z,11.20
2019-03-15T20:27:48.085Z,12.53
2019-03-15T20:30:26.266Z,15.17
2019-03-15T20:32:50.543Z,15.83
2019-03-15T20:35:17.118Z,10.27
2019-03-15T20:37:43.651Z,16.30
2019-03-15T20:40:11.295Z,13.30
2019-03-15T20:42:37.859Z,18.83
2019-03-15T20:45:13.495Z,12.60
2019-03-15T20:47:39.722Z,14.80
2019-03-15T20:50:08.776Z,8.30
2019-03-15T20:52:35.015Z,16.53
2019-03-15T20:55:01.251Z,15.60
2019-03-15T20:57:27.818Z,8.70
2019-03-15T20:59:54.070Z,11.53
2019-03-15T21:02:20.275Z,12.93
2019-03-15T21:04:46.519Z,9.90
2019-03-15T21:07:12.732Z,11.07
2019-03-15T21:09:38.986Z,9.83
2019-03-15T21:12:05.211Z,15.03
2019-03-15T21:14:31.439Z,9.97
2019-03-15T21:16:57.675Z,11.97
2019-03-15T21:19:23.919Z,15.03
2019-03-15T21:21:50.425Z,8.13
2019-03-15T21:24:16.663Z,12.30
2019-03-15T21:26:42.883Z,10.10
2019-03-15T21:29:11.774Z,13.20
2019-03-15T21:31:37.428Z,16.90
2019-03-15T21:34:04.019Z,11.10
2019-03-15T21:36:30.247Z,12.90
2019-03-15T21:38:56.789Z,12.53
2019-03-15T21:41:22.988Z,8.57
2019-03-15T21:43:49.263Z,10.13
2019-03-15T21:46:15.481Z,11.80
2019-03-15T21:48:41.715Z,12.43
2019-03-15T21:51:07.940Z,14.20
2019-03-15T21:53:34.174Z,11.37
2019-03-15T21:56:00.405Z,13.40
2019-03-15T21:58:26.630Z,11.83
2019-03-15T22:01:02.213Z,10.60
2019-03-15T22:03:21.226Z,12.87
2019-03-15T22:05:47.430Z,17.63
2019-03-15T22:08:13.657Z,15.33
2019-03-15T22:10:39.884Z,10.97
2019-03-15T22:13:06.476Z,10.23
2019-03-15T22:15:32.720Z,7.33
2019-03-15T22:17:58.935Z,12.47
2019-03-15T22:20:25.178Z,15.10
2019-03-15T22:22:51.390Z,8.83
2019-03-15T22:25:17.618Z,13.37
2019-03-15T22:27:43.841Z,10.03
2019-03-15T22:30:14.002Z,10.27
2019-03-15T22:32:40.328Z,15.33
2019-03-15T22:35:06.680Z,10.90
2019-03-15T22:37:32.899Z,13.90
2019-03-15T22:39:59.142Z,12.20
2019-03-15T22:42:25.366Z,11.80
2019-03-15T22:44:51.922Z,10.10
2019-03-15T22:47:18.134Z,14.13
2019-03-15T22:49:44.460Z,14.10
2019-03-15T22:52:10.695Z,17.40
2019-03-15T22:54:36.935Z,12.23
2019-03-15T22:57:03.160Z,12.83
2019-03-15T22:59:29.908Z,15.50
2019-03-15T23:01:56.555Z,10.07
2019-03-15T23:04:22.795Z,10.87
2019-03-15T23:06:49.129Z,22.30
2019-03-15T23:09:15.642Z,15.90
2019-03-15T23:11:41.884Z,11.60
2019-03-15T23:14:08.098Z,14.23
2019-03-15T23:16:34.639Z,16.37
2019-03-15T23:19:00.867Z,14.60
2019-03-15T23:21:27.102Z,10.80
2019-03-15T23:23:53.328Z,14.13
2019-03-15T23:26:19.560Z,15.40
2019-03-15T23:28:47.253Z,10.83
2019-03-15T23:31:13.626Z,16.80
2019-03-15T23:33:39.856Z,11.07
2019-03-15T23:36:06.424Z,16.30
2019-03-15T23:38:32.643Z,10.77
2019-03-15T23:40:59.189Z,11.97
2019-03-15T23:43:25.423Z,14.37
2019-03-15T23:45:51.668Z,13.33
2019-03-15T23:48:17.876Z,9.70
2019-03-15T23:50:44.113Z,20.50
2019-03-15T23:53:10.334Z,14.03
2019-03-15T23:55:36.569Z,14.47
2019-03-15T23:58:02.801Z,9.73
